sensor_id;sensor_type;location;lat;lon;timestamp;P1;durP1;ratioP1;P2;durP2;ratioP2
19167;SDS011;9716;53.114;18.040;2022-11-20T00:01:37;27.13;;;13.93;;
19167;SDS011;9716;53.114;18.040;2022-11-20T00:04:06;31.47;;;13.03;;
19167;SDS011;9716;53.114;18.040;2022-11-20T00:06:36;29.00;;;13.60;;
19167;SDS011;9716;53.114;18.040;2022-11-20T00:09:04;26.70;;;12.20;;
19167;SDS011;9716;53.114;18.040;2022-11-20T00:11:33;25.17;;;11.37;;
19167;SDS011;9716;53.114;18.040;2022-11-20T00:14:03;24.70;;;11.17;;
19167;SDS011;9716;53.114;18.040;2022-11-20T00:16:32;28.07;;;11.97;;
19167;SDS011;9716;53.114;18.040;2022-11-20T00:19:01;28.97;;;11.77;;
19167;SDS011;9716;53.114;18.040;2022-11-20T00:21:30;26.97;;;12.33;;
19167;SDS011;9716;53.114;18.040;2022-11-20T00:23:59;29.47;;;12.80;;
19167;SDS011;9716;53.114;18.040;2022-11-20T00:26:27;22.47;;;10.97;;
19167;SDS011;9716;53.114;18.040;2022-11-20T00:28:57;25.03;;;11.77;;
19167;SDS011;9716;53.114;18.040;2022-11-20T00:31:28;25.13;;;10.77;;
19167;SDS011;9716;53.114;18.040;2022-11-20T00:33:59;25.93;;;11.47;;
19167;SDS011;9716;53.114;18.040;2022-11-20T00:36:29;22.47;;;11.23;;
19167;SDS011;9716;53.114;18.040;2022-11-20T00:39:00;21.47;;;10.77;;
19167;SDS011;9716;53.114;18.040;2022-11-20T00:41:29;35.77;;;12.07;;
19167;SDS011;9716;53.114;18.040;2022-11-20T00:43:58;29.30;;;10.27;;
19167;SDS011;9716;53.114;18.040;2022-11-20T00:46:27;24.20;;;10.37;;
19167;SDS011;9716;53.114;18.040;2022-11-20T00:48:57;25.03;;;11.33;;
19167;SDS011;9716;53.114;18.040;2022-11-20T00:51:26;26.10;;;11.70;;
19167;SDS011;9716;53.114;18.040;2022-11-20T00:53:56;26.57;;;10.20;;
19167;SDS011;9716;53.114;18.040;2022-11-20T00:56:24;27.13;;;11.00;;
19167;SDS011;9716;53.114;18.040;2022-11-20T00:58:53;23.27;;;11.77;;
19167;SDS011;9716;53.114;18.040;2022-11-20T01:01:22;23.67;;;10.67;;
19167;SDS011;9716;53.114;18.040;2022-11-20T01:03:54;23.90;;;11.77;;
19167;SDS011;9716;53.114;18.040;2022-11-20T01:06:24;23.40;;;10.10;;
19167;SDS011;9716;53.114;18.040;2022-11-20T01:08:55;24.90;;;10.97;;
19167;SDS011;9716;53.114;18.040;2022-11-20T01:11:24;21.83;;;10.33;;
19167;SDS011;9716;53.114;18.040;2022-11-20T01:13:55;26.93;;;10.87;;
19167;SDS011;9716;53.114;18.040;2022-11-20T01:16:26;23.53;;;11.63;;
19167;SDS011;9716;53.114;18.040;2022-11-20T01:18:57;21.50;;;10.43;;
19167;SDS011;9716;53.114;18.040;2022-11-20T01:21:28;29.53;;;10.50;;
19167;SDS011;9716;53.114;18.040;2022-11-20T01:23:58;27.47;;;11.07;;
19167;SDS011;9716;53.114;18.040;2022-11-20T01:26:28;19.97;;;9.63;;
19167;SDS011;9716;53.114;18.040;2022-11-20T01:28:59;18.37;;;9.27;;
19167;SDS011;9716;53.114;18.040;2022-11-20T01:31:28;21.20;;;10.20;;
19167;SDS011;9716;53.114;18.040;2022-11-20T01:34:01;23.37;;;10.37;;
19167;SDS011;9716;53.114;18.040;2022-11-20T01:36:31;25.07;;;10.83;;
19167;SDS011;9716;53.114;18.040;2022-11-20T01:39:01;18.33;;;10.57;;
19167;SDS011;9716;53.114;18.040;2022-11-20T01:41:31;24.13;;;9.40;;
19167;SDS011;9716;53.114;18.040;2022-11-20T01:44:19;20.13;;;9.00;;
19167;SDS011;9716;53.114;18.040;2022-11-20T01:46:51;24.03;;;11.70;;
19167;SDS011;9716;53.114;18.040;2022-11-20T01:49:27;21.17;;;10.03;;
19167;SDS011;9716;53.114;18.040;2022-11-20T01:52:00;25.67;;;9.60;;
19167;SDS011;9716;53.114;18.040;2022-11-20T01:54:33;22.07;;;10.30;;
19167;SDS011;9716;53.114;18.040;2022-11-20T01:57:06;23.97;;;11.10;;
19167;SDS011;9716;53.114;18.040;2022-11-20T01:59:36;26.27;;;10.37;;
19167;SDS011;9716;53.114;18.040;2022-11-20T02:02:09;22.20;;;9.83;;
19167;SDS011;9716;53.114;18.040;2022-11-20T02:04:39;21.43;;;9.33;;
19167;SDS011;9716;53.114;18.040;2022-11-20T02:07:08;25.67;;;10.97;;
19167;SDS011;9716;53.114;18.040;2022-11-20T02:09:37;28.43;;;10.93;;
19167;SDS011;9716;53.114;18.040;2022-11-20T02:12:05;30.67;;;11.20;;
19167;SDS011;9716;53.114;18.040;2022-11-20T02:14:54;24.70;;;10.20;;
19167;SDS011;9716;53.114;18.040;2022-11-20T02:17:21;18.27;;;9.20;;
19167;SDS011;9716;53.114;18.040;2022-11-20T02:19:52;17.87;;;8.97;;
19167;SDS011;9716;53.114;18.040;2022-11-20T02:22:22;23.43;;;10.90;;
19167;SDS011;9716;53.114;18.040;2022-11-20T02:24:58;21.63;;;9.90;;
19167;SDS011;9716;53.114;18.040;2022-11-20T02:27:29;19.10;;;9.23;;
19167;SDS011;9716;53.114;18.040;2022-11-20T02:29:59;21.63;;;10.93;;
19167;SDS011;9716;53.114;18.040;2022-11-20T02:32:32;19.93;;;9.20;;
19167;SDS011;9716;53.114;18.040;2022-11-20T02:35:06;25.83;;;9.87;;
19167;SDS011;9716;53.114;18.040;2022-11-20T02:37:37;20.10;;;9.23;;
19167;SDS011;9716;53.114;18.040;2022-11-20T02:40:09;20.97;;;10.80;;
19167;SDS011;9716;53.114;18.040;2022-11-20T02:42:38;19.53;;;8.50;;
19167;SDS011;9716;53.114;18.040;2022-11-20T02:45:07;20.77;;;10.03;;
19167;SDS011;9716;53.114;18.040;2022-11-20T02:47:36;26.03;;;9.77;;
19167;SDS011;9716;53.114;18.040;2022-11-20T02:53:52;22.53;;;9.20;;
19167;SDS011;9716;53.114;18.040;2022-11-20T02:56:23;21.37;;;9.80;;
19167;SDS011;9716;53.114;18.040;2022-11-20T02:58:52;22.73;;;10.77;;
19167;SDS011;9716;53.114;18.040;2022-11-20T03:01:20;25.27;;;9.43;;
19167;SDS011;9716;53.114;18.040;2022-11-20T03:03:49;19.53;;;8.53;;
19167;SDS011;9716;53.114;18.040;2022-11-20T03:06:19;19.07;;;9.50;;
19167;SDS011;9716;53.114;18.040;2022-11-20T03:08:47;22.57;;;9.20;;
19167;SDS011;9716;53.114;18.040;2022-11-20T03:11:16;23.53;;;10.03;;
19167;SDS011;9716;53.114;18.040;2022-11-20T03:13:46;18.73;;;9.13;;
19167;SDS011;9716;53.114;18.040;2022-11-20T03:16:15;21.23;;;9.17;;
19167;SDS011;9716;53.114;18.040;2022-11-20T03:18:45;23.70;;;10.43;;
19167;SDS011;9716;53.114;18.040;2022-11-20T03:21:14;25.63;;;9.43;;
19167;SDS011;9716;53.114;18.040;2022-11-20T03:23:43;23.00;;;9.43;;
19167;SDS011;9716;53.114;18.040;2022-11-20T03:26:12;19.40;;;9.13;;
19167;SDS011;9716;53.114;18.040;2022-11-20T03:28:45;23.67;;;9.43;;
19167;SDS011;9716;53.114;18.040;2022-11-20T03:31:17;21.80;;;9.53;;
19167;SDS011;9716;53.114;18.040;2022-11-20T03:33:47;17.30;;;8.77;;
19167;SDS011;9716;53.114;18.040;2022-11-20T03:36:16;24.70;;;9.33;;
19167;SDS011;9716;53.114;18.040;2022-11-20T03:38:46;20.33;;;9.30;;
19167;SDS011;9716;53.114;18.040;2022-11-20T03:41:16;20.27;;;9.57;;
19167;SDS011;9716;53.114;18.040;2022-11-20T03:43:48;17.87;;;9.43;;
19167;SDS011;9716;53.114;18.040;2022-11-20T03:46:17;25.77;;;10.50;;
19167;SDS011;9716;53.114;18.040;2022-11-20T03:48:46;15.10;;;8.30;;
19167;SDS011;9716;53.114;18.040;2022-11-20T03:51:18;15.17;;;9.30;;
19167;SDS011;9716;53.114;18.040;2022-11-20T03:53:49;22.30;;;8.77;;
19167;SDS011;9716;53.114;18.040;2022-11-20T03:56:19;20.57;;;10.13;;
19167;SDS011;9716;53.114;18.040;2022-11-20T03:58:51;18.70;;;8.80;;
19167;SDS011;9716;53.114;18.040;2022-11-20T04:01:20;19.70;;;9.63;;
19167;SDS011;9716;53.114;18.040;2022-11-20T04:03:51;20.83;;;9.43;;
19167;SDS011;9716;53.114;18.040;2022-11-20T04:06:20;20.53;;;8.23;;
19167;SDS011;9716;53.114;18.040;2022-11-20T04:08:51;22.20;;;9.23;;
19167;SDS011;9716;53.114;18.040;2022-11-20T04:11:22;17.70;;;8.90;;
19167;SDS011;9716;53.114;18.040;2022-11-20T04:13:54;20.33;;;9.33;;
19167;SDS011;9716;53.114;18.040;2022-11-20T04:16:24;17.73;;;8.60;;
19167;SDS011;9716;53.114;18.040;2022-11-20T04:18:54;21.57;;;9.60;;
19167;SDS011;9716;53.114;18.040;2022-11-20T04:21:24;23.20;;;9.03;;
19167;SDS011;9716;53.114;18.040;2022-11-20T04:23:53;21.27;;;8.53;;
19167;SDS011;9716;53.114;18.040;2022-11-20T04:26:22;20.63;;;9.00;;
19167;SDS011;9716;53.114;18.040;2022-11-20T04:28:52;25.43;;;9.80;;
19167;SDS011;9716;53.114;18.040;2022-11-20T04:31:23;16.63;;;8.30;;
19167;SDS011;9716;53.114;18.040;2022-11-20T04:33:53;23.20;;;8.50;;
19167;SDS011;9716;53.114;18.040;2022-11-20T04:36:22;18.07;;;8.67;;
19167;SDS011;9716;53.114;18.040;2022-11-20T04:38:53;18.37;;;8.60;;
19167;SDS011;9716;53.114;18.040;2022-11-20T04:41:24;16.40;;;8.73;;
19167;SDS011;9716;53.114;18.040;2022-11-20T04:43:56;20.73;;;8.87;;
19167;SDS011;9716;53.114;18.040;2022-11-20T04:46:30;18.40;;;8.27;;
19167;SDS011;9716;53.114;18.040;2022-11-20T04:48:59;18.13;;;9.27;;
19167;SDS011;9716;53.114;18.040;2022-11-20T04:51:28;21.93;;;8.47;;
19167;SDS011;9716;53.114;18.040;2022-11-20T04:53:57;22.83;;;8.87;;
19167;SDS011;9716;53.114;18.040;2022-11-20T04:56:25;19.17;;;8.10;;
19167;SDS011;9716;53.114;18.040;2022-11-20T04:58:55;19.23;;;8.40;;
19167;SDS011;9716;53.114;18.040;2022-11-20T05:01:27;18.73;;;8.33;;
19167;SDS011;9716;53.114;18.040;2022-11-20T05:03:56;19.67;;;8.63;;
19167;SDS011;9716;53.114;18.040;2022-11-20T05:06:24;16.93;;;8.23;;
19167;SDS011;9716;53.114;18.040;2022-11-20T05:08:53;20.07;;;9.23;;
19167;SDS011;9716;53.114;18.040;2022-11-20T05:11:21;14.73;;;7.77;;
19167;SDS011;9716;53.114;18.040;2022-11-20T05:13:50;15.57;;;8.80;;
19167;SDS011;9716;53.114;18.040;2022-11-20T05:16:22;27.13;;;8.63;;
19167;SDS011;9716;53.114;18.040;2022-11-20T05:18:52;17.93;;;7.97;;
19167;SDS011;9716;53.114;18.040;2022-11-20T05:21:22;23.03;;;8.03;;
19167;SDS011;9716;53.114;18.040;2022-11-20T05:23:50;20.13;;;7.63;;
19167;SDS011;9716;53.114;18.040;2022-11-20T05:26:20;15.93;;;8.33;;
19167;SDS011;9716;53.114;18.040;2022-11-20T05:28:50;20.90;;;6.60;;
19167;SDS011;9716;53.114;18.040;2022-11-20T05:31:21;16.20;;;8.07;;
19167;SDS011;9716;53.114;18.040;2022-11-20T05:33:54;13.50;;;6.97;;
19167;SDS011;9716;53.114;18.040;2022-11-20T05:36:23;15.40;;;7.97;;
19167;SDS011;9716;53.114;18.040;2022-11-20T05:38:51;19.93;;;9.17;;
19167;SDS011;9716;53.114;18.040;2022-11-20T05:41:27;16.87;;;7.33;;
19167;SDS011;9716;53.114;18.040;2022-11-20T05:43:56;16.17;;;7.83;;
19167;SDS011;9716;53.114;18.040;2022-11-20T05:46:27;16.17;;;8.43;;
19167;SDS011;9716;53.114;18.040;2022-11-20T05:48:57;16.10;;;7.90;;
19167;SDS011;9716;53.114;18.040;2022-11-20T05:51:26;17.77;;;7.13;;
19167;SDS011;9716;53.114;18.040;2022-11-20T05:53:55;21.83;;;7.47;;
19167;SDS011;9716;53.114;18.040;2022-11-20T05:56:25;13.13;;;7.07;;
19167;SDS011;9716;53.114;18.040;2022-11-20T05:58:54;20.17;;;8.47;;
19167;SDS011;9716;53.114;18.040;2022-11-20T06:01:23;20.03;;;7.40;;
19167;SDS011;9716;53.114;18.040;2022-11-20T06:03:54;16.63;;;8.73;;
19167;SDS011;9716;53.114;18.040;2022-11-20T06:06:22;15.80;;;8.07;;
19167;SDS011;9716;53.114;18.040;2022-11-20T06:08:51;20.30;;;8.57;;
19167;SDS011;9716;53.114;18.040;2022-11-20T06:11:20;17.53;;;8.83;;
19167;SDS011;9716;53.114;18.040;2022-11-20T06:13:48;20.27;;;7.90;;
19167;SDS011;9716;53.114;18.040;2022-11-20T06:16:18;17.80;;;7.37;;
19167;SDS011;9716;53.114;18.040;2022-11-20T06:18:48;19.83;;;9.10;;
19167;SDS011;9716;53.114;18.040;2022-11-20T06:21:19;16.30;;;7.57;;
19167;SDS011;9716;53.114;18.040;2022-11-20T06:23:50;17.40;;;8.00;;
19167;SDS011;9716;53.114;18.040;2022-11-20T06:26:20;19.17;;;7.47;;
19167;SDS011;9716;53.114;18.040;2022-11-20T06:28:50;18.83;;;7.37;;
19167;SDS011;9716;53.114;18.040;2022-11-20T06:31:20;17.93;;;7.90;;
19167;SDS011;9716;53.114;18.040;2022-11-20T06:33:50;16.63;;;8.47;;
19167;SDS011;9716;53.114;18.040;2022-11-20T06:36:21;21.27;;;8.90;;
19167;SDS011;9716;53.114;18.040;2022-11-20T06:38:50;18.07;;;7.57;;
19167;SDS011;9716;53.114;18.040;2022-11-20T06:41:20;17.43;;;8.00;;
19167;SDS011;9716;53.114;18.040;2022-11-20T06:43:49;15.13;;;7.37;;
19167;SDS011;9716;53.114;18.040;2022-11-20T06:46:19;17.00;;;7.63;;
19167;SDS011;9716;53.114;18.040;2022-11-20T06:48:49;17.30;;;7.80;;
19167;SDS011;9716;53.114;18.040;2022-11-20T06:51:18;19.37;;;6.33;;
19167;SDS011;9716;53.114;18.040;2022-11-20T06:53:49;19.27;;;8.47;;
19167;SDS011;9716;53.114;18.040;2022-11-20T06:56:18;18.80;;;9.07;;
19167;SDS011;9716;53.114;18.040;2022-11-20T06:58:46;16.07;;;7.97;;
19167;SDS011;9716;53.114;18.040;2022-11-20T07:01:15;18.23;;;8.00;;
19167;SDS011;9716;53.114;18.040;2022-11-20T07:03:44;22.03;;;8.60;;
19167;SDS011;9716;53.114;18.040;2022-11-20T07:06:19;17.77;;;8.10;;
19167;SDS011;9716;53.114;18.040;2022-11-20T07:08:51;15.03;;;7.87;;
19167;SDS011;9716;53.114;18.040;2022-11-20T07:11:20;18.73;;;8.83;;
19167;SDS011;9716;53.114;18.040;2022-11-20T07:13:48;18.47;;;8.33;;
19167;SDS011;9716;53.114;18.040;2022-11-20T07:16:17;20.43;;;9.43;;
19167;SDS011;9716;53.114;18.040;2022-11-20T07:18:46;18.73;;;9.23;;
19167;SDS011;9716;53.114;18.040;2022-11-20T07:21:16;18.30;;;8.27;;
19167;SDS011;9716;53.114;18.040;2022-11-20T07:23:45;18.20;;;9.10;;
19167;SDS011;9716;53.114;18.040;2022-11-20T07:26:15;19.70;;;8.50;;
19167;SDS011;9716;53.114;18.040;2022-11-20T07:28:44;21.93;;;9.30;;
19167;SDS011;9716;53.114;18.040;2022-11-20T07:31:13;20.87;;;9.40;;
19167;SDS011;9716;53.114;18.040;2022-11-20T07:33:45;21.97;;;9.10;;
19167;SDS011;9716;53.114;18.040;2022-11-20T07:36:14;19.83;;;9.57;;
19167;SDS011;9716;53.114;18.040;2022-11-20T07:38:42;18.13;;;9.10;;
19167;SDS011;9716;53.114;18.040;2022-11-20T07:41:11;19.60;;;8.77;;
19167;SDS011;9716;53.114;18.040;2022-11-20T07:43:41;21.43;;;8.80;;
19167;SDS011;9716;53.114;18.040;2022-11-20T07:46:10;21.40;;;9.23;;
19167;SDS011;9716;53.114;18.040;2022-11-20T07:48:38;22.07;;;8.30;;
19167;SDS011;9716;53.114;18.040;2022-11-20T07:51:07;22.90;;;10.77;;
19167;SDS011;9716;53.114;18.040;2022-11-20T07:53:35;23.40;;;10.83;;
19167;SDS011;9716;53.114;18.040;2022-11-20T07:56:04;16.83;;;9.20;;
19167;SDS011;9716;53.114;18.040;2022-11-20T07:58:33;20.93;;;10.40;;
19167;SDS011;9716;53.114;18.040;2022-11-20T08:01:04;15.73;;;8.97;;
19167;SDS011;9716;53.114;18.040;2022-11-20T08:03:33;24.97;;;9.70;;
19167;SDS011;9716;53.114;18.040;2022-11-20T08:06:04;25.37;;;10.23;;
19167;SDS011;9716;53.114;18.040;2022-11-20T08:08:33;26.33;;;11.27;;
19167;SDS011;9716;53.114;18.040;2022-11-20T08:11:08;27.47;;;11.27;;
19167;SDS011;9716;53.114;18.040;2022-11-20T08:13:54;24.77;;;9.47;;
19167;SDS011;9716;53.114;18.040;2022-11-20T08:16:43;26.03;;;10.13;;
19167;SDS011;9716;53.114;18.040;2022-11-20T08:19:13;23.57;;;10.17;;
19167;SDS011;9716;53.114;18.040;2022-11-20T08:21:42;21.17;;;10.70;;
19167;SDS011;9716;53.114;18.040;2022-11-20T08:24:11;20.80;;;9.67;;
19167;SDS011;9716;53.114;18.040;2022-11-20T08:26:40;21.70;;;9.73;;
19167;SDS011;9716;53.114;18.040;2022-11-20T08:29:09;20.03;;;8.87;;
19167;SDS011;9716;53.114;18.040;2022-11-20T08:31:37;20.93;;;10.00;;
19167;SDS011;9716;53.114;18.040;2022-11-20T08:34:27;26.13;;;10.03;;
19167;SDS011;9716;53.114;18.040;2022-11-20T08:36:56;30.60;;;10.50;;
19167;SDS011;9716;53.114;18.040;2022-11-20T08:39:25;23.87;;;11.20;;
19167;SDS011;9716;53.114;18.040;2022-11-20T08:41:54;25.03;;;11.10;;
19167;SDS011;9716;53.114;18.040;2022-11-20T08:44:22;33.50;;;13.87;;
19167;SDS011;9716;53.114;18.040;2022-11-20T08:46:51;32.80;;;13.93;;
19167;SDS011;9716;53.114;18.040;2022-11-20T08:49:19;30.93;;;11.90;;
19167;SDS011;9716;53.114;18.040;2022-11-20T08:51:51;33.33;;;11.77;;
19167;SDS011;9716;53.114;18.040;2022-11-20T08:54:21;41.93;;;13.83;;
19167;SDS011;9716;53.114;18.040;2022-11-20T08:56:50;27.13;;;11.67;;
19167;SDS011;9716;53.114;18.040;2022-11-20T08:59:18;21.47;;;10.37;;
19167;SDS011;9716;53.114;18.040;2022-11-20T09:02:07;35.47;;;11.60;;
19167;SDS011;9716;53.114;18.040;2022-11-20T09:04:36;33.57;;;13.37;;
19167;SDS011;9716;53.114;18.040;2022-11-20T09:07:06;26.23;;;11.13;;
19167;SDS011;9716;53.114;18.040;2022-11-20T09:09:34;23.17;;;10.67;;
19167;SDS011;9716;53.114;18.040;2022-11-20T09:12:03;26.50;;;11.53;;
19167;SDS011;9716;53.114;18.040;2022-11-20T09:14:32;23.03;;;11.10;;
19167;SDS011;9716;53.114;18.040;2022-11-20T09:17:01;25.03;;;11.57;;
19167;SDS011;9716;53.114;18.040;2022-11-20T09:19:29;22.60;;;10.63;;
19167;SDS011;9716;53.114;18.040;2022-11-20T09:22:08;28.90;;;11.47;;
19167;SDS011;9716;53.114;18.040;2022-11-20T09:24:37;28.07;;;11.90;;
19167;SDS011;9716;53.114;18.040;2022-11-20T09:27:05;22.43;;;11.23;;
19167;SDS011;9716;53.114;18.040;2022-11-20T09:29:34;18.83;;;10.80;;
19167;SDS011;9716;53.114;18.040;2022-11-20T09:32:03;24.67;;;11.33;;
19167;SDS011;9716;53.114;18.040;2022-11-20T09:34:34;26.80;;;11.63;;
19167;SDS011;9716;53.114;18.040;2022-11-20T09:37:02;31.00;;;12.10;;
19167;SDS011;9716;53.114;18.040;2022-11-20T09:39:34;22.00;;;10.63;;
19167;SDS011;9716;53.114;18.040;2022-11-20T09:42:15;26.97;;;11.03;;
19167;SDS011;9716;53.114;18.040;2022-11-20T09:45:01;23.17;;;10.47;;
19167;SDS011;9716;53.114;18.040;2022-11-20T09:47:45;28.27;;;12.03;;
19167;SDS011;9716;53.114;18.040;2022-11-20T09:50:30;28.80;;;11.43;;
19167;SDS011;9716;53.114;18.040;2022-11-20T09:53:07;29.07;;;11.23;;
19167;SDS011;9716;53.114;18.040;2022-11-20T09:55:42;26.70;;;10.33;;
19167;SDS011;9716;53.114;18.040;2022-11-20T09:58:13;22.53;;;10.13;;
19167;SDS011;9716;53.114;18.040;2022-11-20T10:00:50;22.97;;;10.57;;
19167;SDS011;9716;53.114;18.040;2022-11-20T10:03:26;25.27;;;11.37;;
19167;SDS011;9716;53.114;18.040;2022-11-20T10:06:04;20.33;;;11.03;;
19167;SDS011;9716;53.114;18.040;2022-11-20T10:08:40;28.43;;;10.90;;
19167;SDS011;9716;53.114;18.040;2022-11-20T10:11:15;27.93;;;12.60;;
19167;SDS011;9716;53.114;18.040;2022-11-20T10:13:52;26.90;;;13.60;;
19167;SDS011;9716;53.114;18.040;2022-11-20T10:16:32;21.87;;;11.33;;
19167;SDS011;9716;53.114;18.040;2022-11-20T10:19:13;22.97;;;12.37;;
19167;SDS011;9716;53.114;18.040;2022-11-20T10:22:03;26.13;;;11.70;;
19167;SDS011;9716;53.114;18.040;2022-11-20T10:24:46;30.53;;;13.73;;
19167;SDS011;9716;53.114;18.040;2022-11-20T10:30:29;36.87;;;13.70;;
19167;SDS011;9716;53.114;18.040;2022-11-20T10:33:03;30.27;;;13.50;;
19167;SDS011;9716;53.114;18.040;2022-11-20T10:35:35;38.77;;;15.57;;
19167;SDS011;9716;53.114;18.040;2022-11-20T10:38:09;34.63;;;14.50;;
19167;SDS011;9716;53.114;18.040;2022-11-20T10:40:45;32.87;;;13.73;;
19167;SDS011;9716;53.114;18.040;2022-11-20T10:43:21;28.90;;;12.90;;
19167;SDS011;9716;53.114;18.040;2022-11-20T10:45:56;33.83;;;14.73;;
19167;SDS011;9716;53.114;18.040;2022-11-20T10:48:28;27.20;;;13.00;;
19167;SDS011;9716;53.114;18.040;2022-11-20T10:51:01;31.00;;;13.87;;
19167;SDS011;9716;53.114;18.040;2022-11-20T10:53:40;30.70;;;13.87;;
19167;SDS011;9716;53.114;18.040;2022-11-20T10:56:25;38.53;;;15.27;;
19167;SDS011;9716;53.114;18.040;2022-11-20T10:59:15;26.87;;;14.00;;
19167;SDS011;9716;53.114;18.040;2022-11-20T11:01:56;36.77;;;15.07;;
19167;SDS011;9716;53.114;18.040;2022-11-20T11:04:32;38.17;;;14.13;;
19167;SDS011;9716;53.114;18.040;2022-11-20T11:07:06;28.17;;;13.10;;
19167;SDS011;9716;53.114;18.040;2022-11-20T11:09:39;28.87;;;12.60;;
19167;SDS011;9716;53.114;18.040;2022-11-20T11:12:11;34.73;;;14.40;;
19167;SDS011;9716;53.114;18.040;2022-11-20T11:14:46;33.70;;;13.20;;
19167;SDS011;9716;53.114;18.040;2022-11-20T11:17:21;33.20;;;13.27;;
19167;SDS011;9716;53.114;18.040;2022-11-20T11:20:06;31.47;;;14.57;;
19167;SDS011;9716;53.114;18.040;2022-11-20T11:22:45;26.77;;;12.93;;
19167;SDS011;9716;53.114;18.040;2022-11-20T11:25:22;33.07;;;14.27;;
19167;SDS011;9716;53.114;18.040;2022-11-20T11:27:54;40.53;;;17.63;;
19167;SDS011;9716;53.114;18.040;2022-11-20T11:30:25;30.03;;;13.57;;
19167;SDS011;9716;53.114;18.040;2022-11-20T11:33:03;36.23;;;14.23;;
19167;SDS011;9716;53.114;18.040;2022-11-20T11:35:38;33.33;;;14.43;;
19167;SDS011;9716;53.114;18.040;2022-11-20T11:38:19;34.47;;;14.77;;
19167;SDS011;9716;53.114;18.040;2022-11-20T11:40:52;29.53;;;13.17;;
19167;SDS011;9716;53.114;18.040;2022-11-20T11:43:22;29.47;;;14.00;;
19167;SDS011;9716;53.114;18.040;2022-11-20T11:46:26;34.67;;;15.57;;
19167;SDS011;9716;53.114;18.040;2022-11-20T11:48:59;37.33;;;13.90;;
19167;SDS011;9716;53.114;18.040;2022-11-20T11:51:31;37.80;;;14.17;;
19167;SDS011;9716;53.114;18.040;2022-11-20T11:54:13;30.47;;;13.20;;
19167;SDS011;9716;53.114;18.040;2022-11-20T11:56:44;29.50;;;14.23;;
19167;SDS011;9716;53.114;18.040;2022-11-20T11:59:15;28.50;;;14.13;;
19167;SDS011;9716;53.114;18.040;2022-11-20T12:04:26;33.33;;;14.30;;
19167;SDS011;9716;53.114;18.040;2022-11-20T12:07:10;34.23;;;13.97;;
19167;SDS011;9716;53.114;18.040;2022-11-20T12:10:04;30.87;;;13.87;;
19167;SDS011;9716;53.114;18.040;2022-11-20T12:12:36;28.80;;;13.80;;
19167;SDS011;9716;53.114;18.040;2022-11-20T12:15:09;28.87;;;14.03;;
19167;SDS011;9716;53.114;18.040;2022-11-20T12:17:41;36.03;;;14.87;;
19167;SDS011;9716;53.114;18.040;2022-11-20T12:20:11;28.13;;;13.03;;
19167;SDS011;9716;53.114;18.040;2022-11-20T12:22:44;30.20;;;13.90;;
19167;SDS011;9716;53.114;18.040;2022-11-20T12:25:20;33.37;;;14.37;;
19167;SDS011;9716;53.114;18.040;2022-11-20T12:28:14;31.90;;;13.63;;
19167;SDS011;9716;53.114;18.040;2022-11-20T12:30:58;33.23;;;12.63;;
19167;SDS011;9716;53.114;18.040;2022-11-20T12:33:44;32.77;;;14.37;;
19167;SDS011;9716;53.114;18.040;2022-11-20T12:36:25;25.93;;;12.07;;
19167;SDS011;9716;53.114;18.040;2022-11-20T12:39:09;30.57;;;14.33;;
19167;SDS011;9716;53.114;18.040;2022-11-20T12:41:57;32.77;;;13.97;;
19167;SDS011;9716;53.114;18.040;2022-11-20T12:45:10;34.93;;;16.40;;
19167;SDS011;9716;53.114;18.040;2022-11-20T12:48:13;36.73;;;16.17;;
19167;SDS011;9716;53.114;18.040;2022-11-20T12:51:21;42.67;;;17.50;;
19167;SDS011;9716;53.114;18.040;2022-11-20T12:57:15;32.83;;;15.87;;
19167;SDS011;9716;53.114;18.040;2022-11-20T12:59:53;35.77;;;15.77;;
19167;SDS011;9716;53.114;18.040;2022-11-20T13:02:33;40.80;;;15.80;;
19167;SDS011;9716;53.114;18.040;2022-11-20T13:05:17;37.13;;;15.57;;
19167;SDS011;9716;53.114;18.040;2022-11-20T13:07:51;31.20;;;15.40;;
19167;SDS011;9716;53.114;18.040;2022-11-20T13:10:25;28.93;;;13.03;;
19167;SDS011;9716;53.114;18.040;2022-11-20T13:13:01;35.63;;;14.13;;
19167;SDS011;9716;53.114;18.040;2022-11-20T13:15:40;30.93;;;15.47;;
19167;SDS011;9716;53.114;18.040;2022-11-20T13:18:16;38.83;;;14.77;;
19167;SDS011;9716;53.114;18.040;2022-11-20T13:20:46;34.70;;;14.27;;
19167;SDS011;9716;53.114;18.040;2022-11-20T13:23:26;37.87;;;14.40;;
19167;SDS011;9716;53.114;18.040;2022-11-20T13:26:05;31.33;;;14.23;;
19167;SDS011;9716;53.114;18.040;2022-11-20T13:28:42;36.13;;;13.57;;
19167;SDS011;9716;53.114;18.040;2022-11-20T13:31:23;34.37;;;12.33;;
19167;SDS011;9716;53.114;18.040;2022-11-20T13:33:57;28.93;;;11.87;;
19167;SDS011;9716;53.114;18.040;2022-11-20T13:36:29;33.27;;;14.03;;
19167;SDS011;9716;53.114;18.040;2022-11-20T13:39:00;33.37;;;12.50;;
19167;SDS011;9716;53.114;18.040;2022-11-20T13:41:30;29.83;;;13.63;;
19167;SDS011;9716;53.114;18.040;2022-11-20T13:44:06;26.23;;;12.73;;
19167;SDS011;9716;53.114;18.040;2022-11-20T13:46:41;28.73;;;11.93;;
19167;SDS011;9716;53.114;18.040;2022-11-20T13:49:16;32.63;;;11.53;;
19167;SDS011;9716;53.114;18.040;2022-11-20T13:51:46;27.47;;;12.93;;
19167;SDS011;9716;53.114;18.040;2022-11-20T13:54:34;28.47;;;12.90;;
19167;SDS011;9716;53.114;18.040;2022-11-20T13:57:27;29.40;;;12.13;;
19167;SDS011;9716;53.114;18.040;2022-11-20T14:00:22;29.93;;;10.80;;
19167;SDS011;9716;53.114;18.040;2022-11-20T14:02:58;27.97;;;12.43;;
19167;SDS011;9716;53.114;18.040;2022-11-20T14:05:30;29.17;;;12.30;;
19167;SDS011;9716;53.114;18.040;2022-11-20T14:08:02;23.97;;;11.03;;
19167;SDS011;9716;53.114;18.040;2022-11-20T14:10:33;29.90;;;12.70;;
19167;SDS011;9716;53.114;18.040;2022-11-20T14:13:15;28.37;;;11.07;;
19167;SDS011;9716;53.114;18.040;2022-11-20T14:15:46;26.23;;;10.90;;
19167;SDS011;9716;53.114;18.040;2022-11-20T14:18:18;27.70;;;11.17;;
19167;SDS011;9716;53.114;18.040;2022-11-20T14:20:48;27.17;;;11.03;;
19167;SDS011;9716;53.114;18.040;2022-11-20T14:23:23;36.60;;;10.93;;
19167;SDS011;9716;53.114;18.040;2022-11-20T14:25:57;20.30;;;10.50;;
19167;SDS011;9716;53.114;18.040;2022-11-20T14:28:26;26.40;;;11.57;;
19167;SDS011;9716;53.114;18.040;2022-11-20T14:30:56;20.83;;;10.27;;
19167;SDS011;9716;53.114;18.040;2022-11-20T14:33:26;25.93;;;10.70;;
19167;SDS011;9716;53.114;18.040;2022-11-20T14:35:55;24.80;;;8.93;;
19167;SDS011;9716;53.114;18.040;2022-11-20T14:38:27;26.97;;;11.03;;
19167;SDS011;9716;53.114;18.040;2022-11-20T14:41:06;22.20;;;11.07;;
19167;SDS011;9716;53.114;18.040;2022-11-20T14:43:36;20.73;;;9.73;;
19167;SDS011;9716;53.114;18.040;2022-11-20T14:46:05;20.97;;;10.13;;
19167;SDS011;9716;53.114;18.040;2022-11-20T14:48:37;19.87;;;9.77;;
19167;SDS011;9716;53.114;18.040;2022-11-20T14:51:08;26.10;;;10.33;;
19167;SDS011;9716;53.114;18.040;2022-11-20T14:53:38;26.77;;;10.30;;
19167;SDS011;9716;53.114;18.040;2022-11-20T14:56:08;18.50;;;9.67;;
19167;SDS011;9716;53.114;18.040;2022-11-20T14:58:37;29.10;;;12.03;;
19167;SDS011;9716;53.114;18.040;2022-11-20T15:01:07;23.30;;;10.40;;
19167;SDS011;9716;53.114;18.040;2022-11-20T15:03:40;29.20;;;10.17;;
19167;SDS011;9716;53.114;18.040;2022-11-20T15:06:11;24.67;;;11.13;;
19167;SDS011;9716;53.114;18.040;2022-11-20T15:08:50;29.33;;;11.33;;
19167;SDS011;9716;53.114;18.040;2022-11-20T15:11:20;23.97;;;10.97;;